Time;durP1;ratioP1;P1;durP2;ratioP2;P2;SDS_P1;SDS_P2;PMS_P1;PMS_P2;Temp;Humidity;BMP_temperature;BMP_pressure;BME280_temperature;BME280_humidity;BME280_pressure;Samples;Min_cycle;Max_cycle;Signal;HPM_P1;HPM_P2
2023/10/31 00:01:31;;;;;;;8.60;6.30;;;12.50;99.90;;;12.00;100.00;98807.59;5035527;28;20707;-73
2023/10/31 00:03:59;;;;;;;9.07;6.40;;;12.50;99.90;;;11.99;100.00;98805.94;5035083;28;20207;-73
2023/10/31 00:06:28;;;;;;;7.20;5.77;;;12.50;99.90;;;11.99;100.00;98810.50;5034578;28;20310;-73
2023/10/31 00:08:57;;;;;;;10.33;7.03;;;12.50;99.90;;;11.99;100.00;98805.94;5035176;28;20246;-73
2023/10/31 00:11:25;;;;;;;8.57;6.63;;;12.50;99.90;;;11.99;100.00;98802.44;5035154;28;20250;-73
2023/10/31 00:13:53;;;;;;;8.03;6.47;;;12.50;99.90;;;11.97;100.00;98807.22;5034522;28;20224;-73
2023/10/31 00:16:21;;;;;;;9.10;6.30;;;12.40;99.90;;;11.96;100.00;98801.03;5034902;28;20242;-73
2023/10/31 00:18:49;;;;;;;9.43;6.30;;;12.40;99.90;;;11.96;100.00;98794.84;5034694;28;20688;-73
2023/10/31 00:21:17;;;;;;;10.47;6.73;;;12.50;99.90;;;11.95;100.00;98795.91;5034947;28;20210;-73
2023/10/31 00:23:49;;;;;;;7.47;6.30;;;12.50;99.90;;;11.92;100.00;98793.63;5034994;28;20219;-73
2023/10/31 00:26:18;;;;;;;8.83;5.90;;;12.40;99.90;;;11.93;100.00;98789.91;5034534;28;20317;-73
2023/10/31 00:28:46;;;;;;;9.67;6.20;;;12.40;99.90;;;11.94;100.00;98794.25;5034535;28;20298;-73
2023/10/31 00:31:14;;;;;;;8.17;5.40;;;12.50;99.90;;;11.94;100.00;98795.06;5034802;28;20206;-73
2023/10/31 00:33:42;;;;;;;9.73;5.97;;;12.50;99.90;;;11.93;100.00;98797.94;5034710;28;20203;-73
2023/10/31 00:36:10;;;;;;;10.23;5.90;;;12.50;99.90;;;11.93;100.00;98789.91;5034546;28;20241;-72
2023/10/31 00:38:39;;;;;;;7.40;6.20;;;12.40;99.90;;;11.94;100.00;98791.56;5034632;28;20294;-72
2023/10/31 00:41:08;;;;;;;7.07;5.47;;;12.50;99.90;;;11.93;100.00;98795.28;5034281;28;20672;-72
2023/10/31 00:43:36;;;;;;;6.93;5.50;;;12.50;99.90;;;11.93;100.00;98792.59;5034497;28;20298;-72
2023/10/31 00:46:05;;;;;;;5.87;5.07;;;12.40;99.90;;;11.94;100.00;98797.75;5034096;28;20643;-72
2023/10/31 00:48:36;;;;;;;6.97;5.20;;;12.40;99.90;;;11.94;100.00;98796.91;5034420;28;20207;-72
2023/10/31 00:51:04;;;;;;;6.77;5.40;;;12.50;99.90;;;11.94;100.00;98787.03;5034429;28;20213;-72
2023/10/31 00:53:33;;;;;;;6.43;4.53;;;12.50;99.90;;;11.94;100.00;98786.19;5034322;28;20242;-72
2023/10/31 00:56:02;;;;;;;6.27;4.87;;;12.50;99.90;;;11.94;100.00;98796.91;5034126;28;20329;-72
2023/10/31 00:58:32;;;;;;;9.13;4.70;;;12.50;99.90;;;11.93;100.00;98795.28;5034285;28;20268;-72
2023/10/31 01:01:00;;;;;;;6.00;4.37;;;12.40;99.90;;;11.92;100.00;98796.31;5033861;28;20210;-72
2023/10/31 01:03:28;;;;;;;7.30;4.77;;;12.40;99.90;;;11.90;100.00;98796.53;5034063;28;20566;-72
2023/10/31 01:05:57;;;;;;;6.23;4.73;;;12.40;99.90;;;11.91;100.00;98798.19;5033763;28;20284;-72
2023/10/31 01:08:25;;;;;;;4.53;4.13;;;12.40;99.90;;;11.91;100.00;98795.50;5034078;28;20260;-72
2023/10/31 01:10:53;;;;;;;8.90;4.27;;;12.50;99.90;;;11.92;100.00;98788.25;5033715;28;20297;-72
2023/10/31 01:13:21;;;;;;;4.63;3.87;;;12.40;99.90;;;11.93;100.00;98789.91;5033813;28;20699;-72
2023/10/31 01:15:51;;;;;;;4.03;3.53;;;12.50;99.90;;;11.94;100.00;98778.97;5033707;28;20341;-72
2023/10/31 01:18:19;;;;;;;3.83;3.47;;;12.50;99.90;;;11.93;100.00;98776.50;5033568;28;20579;-72
2023/10/31 01:20:47;;;;;;;4.43;3.90;;;12.50;99.90;;;11.93;100.00;98779.19;5033520;28;20645;-72
2023/10/31 01:23:15;;;;;;;4.73;3.50;;;12.50;99.90;;;11.91;100.00;98766.00;5033815;28;20213;-72
2023/10/31 01:25:43;;;;;;;4.90;3.63;;;12.50;99.90;;;11.93;100.00;98768.44;5033718;28;20262;-72
2023/10/31 01:28:12;;;;;;;5.70;3.47;;;12.50;99.90;;;11.92;100.00;98766.81;5033747;28;20234;-73
2023/10/31 01:30:40;;;;;;;6.87;3.77;;;12.50;99.90;;;11.91;100.00;98760.66;5033417;28;20302;-73
2023/10/31 01:33:09;;;;;;;4.73;3.80;;;12.50;99.90;;;11.93;100.00;98765.78;5033216;28;20673;-73
2023/10/31 01:35:37;;;;;;;6.23;3.80;;;12.50;99.90;;;11.91;100.00;98766.00;5033207;28;20708;-73
2023/10/31 01:38:06;;;;;;;6.90;3.97;;;12.50;99.90;;;11.91;100.00;98760.66;5033293;28;20752;-73
2023/10/31 01:40:34;;;;;;;6.37;4.20;;;12.50;99.90;;;11.91;100.00;98751.78;5033602;28;20230;-73
2023/10/31 01:43:02;;;;;;;4.60;3.50;;;12.50;99.90;;;11.91;100.00;98752.59;5033560;28;20210;-73
2023/10/31 01:45:30;;;;;;;4.23;3.53;;;12.50;99.90;;;11.91;100.00;98744.56;5033455;28;20310;-72
2023/10/31 01:47:59;;;;;;;4.27;3.57;;;12.50;99.90;;;11.92;100.00;98745.34;5033512;28;20292;-72
2023/10/31 01:50:29;;;;;;;5.27;3.90;;;12.50;99.90;;;11.91;100.00;98733.00;5033471;28;20207;-73
2023/10/31 01:52:57;;;;;;;4.83;3.67;;;12.40;99.90;;;11.90;100.00;98731.34;5033468;28;20336;-73
2023/10/31 01:55:27;;;;;;;7.63;4.07;;;12.40;99.90;;;11.90;100.00;98731.34;5033022;28;20230;-73
2023/10/31 01:57:56;;;;;;;6.73;3.97;;;12.50;99.90;;;11.90;100.00;98726.00;5033088;28;20249;-73
2023/10/31 02:00:24;;;;;;;4.00;3.70;;;12.50;99.90;;;11.89;100.00;98721.66;5033085;28;20585;-73
2023/10/31 02:02:55;;;;;;;5.07;4.00;;;12.50;99.90;;;11.90;100.00;98715.25;5033045;28;20250;-72
2023/10/31 02:05:23;;;;;;;4.47;3.40;;;12.50;99.90;;;11.91;100.00;98714.22;5033341;28;20219;-72
2023/10/31 02:07:52;;;;;;;5.40;3.73;;;12.50;99.90;;;11.89;100.00;98709.06;5033332;28;20253;-72
2023/10/31 02:10:21;;;;;;;4.37;3.97;;;12.40;99.90;;;11.88;100.00;98702.09;5033283;28;20260;-72
2023/10/31 02:12:49;;;;;;;4.50;3.70;;;12.50;99.90;;;11.88;100.00;98701.25;5032969;28;20250;-71
2023/10/31 02:15:17;;;;;;;7.00;3.87;;;12.40;99.90;;;11.88;100.00;98695.91;5033139;28;20318;-72
2023/10/31 02:17:45;;;;;;;7.17;4.10;;;12.40;99.90;;;11.88;100.00;98701.25;5032913;28;20679;-72
2023/10/31 02:20:13;;;;;;;4.60;4.03;;;12.40;99.90;;;11.87;100.00;98694.25;5032900;28;20218;-72
2023/10/31 02:22:43;;;;;;;5.40;4.27;;;12.40;99.90;;;11.86;100.00;98695.28;5033175;28;20203;-72
2023/10/31 02:25:18;;;;;;;4.67;3.90;;;12.40;99.90;;;11.86;100.00;98693.44;5033081;28;20264;-72
2023/10/31 02:27:47;;;;;;;4.63;4.00;;;12.40;99.90;;;11.86;100.00;98693.44;5033548;28;20301;-72
2023/10/31 02:30:15;;;;;;;6.50;4.33;;;12.40;99.90;;;11.85;100.00;98701.69;5036735;28;20631;-72
2023/10/31 02:32:44;;;;;;;5.43;4.40;;;12.40;99.90;;;11.86;100.00;98700.66;5036880;28;20687;-72
2023/10/31 02:35:13;;;;;;;4.77;4.20;;;12.40;99.90;;;11.85;100.00;98694.44;5036515;28;20720;-72
2023/10/31 02:37:43;;;;;;;5.40;3.77;;;12.40;99.90;;;11.85;100.00;98701.69;5036918;28;20257;-72
2023/10/31 02:40:12;;;;;;;5.37;4.40;;;12.40;99.90;;;11.85;100.00;98707.06;5036890;28;20218;-72
2023/10/31 02:42:40;;;;;;;5.17;4.63;;;12.40;99.90;;;11.81;100.00;98706.69;5036476;28;20665;-72
2023/10/31 02:45:09;;;;;;;5.30;4.53;;;12.40;99.90;;;11.81;100.00;98705.84;5036681;28;20210;-72
2023/10/31 02:47:37;;;;;;;5.97;5.00;;;12.40;99.90;;;11.77;100.00;98700.09;5036720;28;20211;-72
2023/10/31 02:50:07;;;;;;;9.30;4.90;;;12.30;99.90;;;11.76;100.00;98693.09;5036485;28;20207;-72
2023/10/31 02:52:36;;;;;;;7.20;5.43;;;12.40;99.90;;;11.77;100.00;98696.59;5035880;28;20674;-72
2023/10/31 02:55:06;;;;;;;5.03;4.53;;;12.30;99.90;;;11.76;100.00;98686.91;5036342;28;20203;-72
2023/10/31 02:57:34;;;;;;;5.83;5.20;;;12.40;99.90;;;11.77;100.00;98685.88;5037311;28;20223;-72
2023/10/31 03:00:02;;;;;;;8.97;5.20;;;12.40;99.90;;;11.77;100.00;98686.69;5035245;28;20298;-72
2023/10/31 03:02:31;;;;;;;5.63;5.10;;;12.40;99.90;;;11.78;100.00;98676.81;5036327;28;20207;-72
2023/10/31 03:04:59;;;;;;;6.50;5.23;;;12.40;99.90;;;11.78;100.00;98680.28;5036307;28;20211;-72
2023/10/31 03:07:27;;;;;;;6.77;5.30;;;12.40;99.90;;;11.77;100.00;98677.84;5036060;28;20298;-72
2023/10/31 03:09:55;;;;;;;7.00;5.53;;;12.40;99.90;;;11.78;100.00;98687.53;5036045;28;20731;-72
2023/10/31 03:12:25;;;;;;;8.87;5.27;;;12.40;99.90;;;11.76;100.00;98681.53;5035934;28;20242;-72
2023/10/31 03:14:53;;;;;;;6.37;5.70;;;12.40;99.90;;;11.78;100.00;98684.84;5036112;28;20294;-72
2023/10/31 03:17:22;;;;;;;6.03;5.37;;;12.40;99.90;;;11.79;100.00;98692.66;5036228;28;20230;-72
2023/10/31 03:19:50;;;;;;;6.33;5.17;;;12.40;99.90;;;11.80;100.00;98688.13;5036142;28;20235;-72
2023/10/31 03:22:18;;;;;;;6.00;5.30;;;12.40;99.90;;;11.80;100.00;98682.75;5035733;28;20625;-72
2023/10/31 03:24:46;;;;;;;7.43;5.20;;;12.40;99.90;;;11.82;100.00;98686.03;5036004;28;20209;-72
2023/10/31 03:27:14;;;;;;;4.90;4.40;;;12.40;99.90;;;11.83;100.00;98685.81;5035613;28;20314;-72
2023/10/31 03:29:44;;;;;;;5.73;4.87;;;12.40;99.90;;;11.85;100.00;98685.63;5036020;28;20206;-72
2023/10/31 03:32:13;;;;;;;8.07;4.63;;;12.50;99.90;;;11.86;100.00;98687.25;5035647;28;20744;-72
2023/10/31 03:34:41;;;;;;;6.30;5.20;;;12.50;99.90;;;11.86;100.00;98679.19;5035852;28;20210;-72
2023/10/31 03:37:09;;;;;;;5.60;4.90;;;12.40;99.90;;;11.87;100.00;98680.84;5035643;28;20234;-72
2023/10/31 03:39:38;;;;;;;6.17;5.50;;;12.50;99.90;;;11.86;100.00;98681.88;5034738;28;20238;-72
2023/10/31 03:42:06;;;;;;;6.93;5.63;;;12.50;99.90;;;11.86;100.00;98681.88;5035712;28;20297;-72
2023/10/31 03:44:34;;;;;;;6.33;5.67;;;12.50;99.90;;;11.85;100.00;98688.28;5035634;28;20290;-72
2023/10/31 03:47:04;;;;;;;6.43;5.83;;;12.50;99.90;;;11.84;100.00;98698.19;5035561;28;20250;-72
2023/10/31 03:49:32;;;;;;;6.63;5.90;;;12.50;99.90;;;11.84;100.00;98706.25;5035558;28;20210;-72
2023/10/31 03:52:00;;;;;;;7.27;6.00;;;12.50;99.90;;;11.83;100.00;98718.00;5035531;28;20293;-72
2023/10/31 03:54:28;;;;;;;4.80;4.30;;;12.50;99.90;;;11.69;100.00;98713.72;5035164;28;20210;-72
2023/10/31 03:56:56;;;;;;;3.93;3.53;;;12.40;99.90;;;11.67;100.00;98719.31;5035302;28;20317;-72
2023/10/31 03:59:24;;;;;;;3.77;3.47;;;12.30;99.90;;;11.63;100.00;98728.00;5035406;28;20580;-72
2023/10/31 04:01:53;;;;;;;4.00;3.70;;;12.30;99.90;;;11.59;99.23;98732.97;5035590;28;20298;-72
2023/10/31 04:04:22;;;;;;;3.97;3.67;;;12.30;99.90;;;11.56;99.31;98721.84;5035281;28;20289;-72
2023/10/31 04:06:50;;;;;;;4.70;3.70;;;12.20;99.90;;;11.53;99.44;98725.78;5035174;28;20633;-72
2023/10/31 04:09:18;;;;;;;4.50;4.10;;;12.20;99.90;;;11.48;98.94;98724.78;5035225;28;20234;-72
2023/10/31 04:11:46;;;;;;;4.13;3.83;;;12.10;99.90;;;11.47;97.99;98726.63;5034706;28;20210;-72
2023/10/31 04:14:15;;;;;;;4.40;4.00;;;12.10;99.90;;;11.45;98.63;98723.34;5035141;28;20325;-72
2023/10/31 04:16:45;;;;;;;5.27;4.13;;;12.10;99.90;;;11.46;98.46;98708.94;5034910;28;20227;-72
2023/10/31 04:19:14;;;;;;;5.97;3.90;;;12.10;99.90;;;11.40;98.98;98723.19;5035036;28;20195;-72
2023/10/31 04:21:43;;;;;;;4.17;3.70;;;12.00;99.90;;;11.36;97.23;98735.38;5034650;28;20306;-72
2023/10/31 04:24:11;;;;;;;3.90;3.60;;;12.00;99.90;;;11.36;98.35;98739.91;5034901;28;20294;-72
2023/10/31 04:26:41;;;;;;;3.97;3.57;;;12.00;99.90;;;11.33;97.45;98733.13;5034835;28;20318;-72
2023/10/31 04:29:09;;;;;;;4.40;4.07;;;12.00;99.90;;;11.33;97.25;98738.47;5034922;28;20286;-72
2023/10/31 04:31:37;;;;;;;3.50;3.20;;;12.00;99.90;;;11.35;96.61;98741.75;5034478;28;20213;-72
2023/10/31 04:34:12;;;;;;;3.73;3.33;;;12.00;99.90;;;11.34;95.90;98745.47;5034779;28;20199;-72
2023/10/31 04:36:43;;;;;;;2.87;2.67;;;12.00;99.90;;;11.32;95.71;98752.06;5034219;28;20330;-72
2023/10/31 04:39:11;;;;;;;3.03;2.80;;;12.00;99.90;;;11.29;93.91;98750.66;5034643;28;20305;-72
2023/10/31 04:41:39;;;;;;;2.47;2.30;;;11.90;99.90;;;11.28;92.28;98748.16;5034623;28;20242;-73
2023/10/31 04:44:07;;;;;;;2.43;2.23;;;11.90;99.90;;;11.25;93.00;98757.47;5034245;28;20298;-72
2023/10/31 04:46:35;;;;;;;3.43;2.23;;;11.90;99.90;;;11.27;93.35;98746.56;5034402;28;20223;-72
2023/10/31 04:49:04;;;;;;;3.13;2.00;;;11.90;99.90;;;11.21;92.23;98748.19;5034437;28;20293;-72
2023/10/31 04:51:35;;;;;;;1.83;1.73;;;11.80;99.90;;;11.20;92.89;98755.41;5034009;28;20294;-72
2023/10/31 04:54:05;;;;;;;2.20;2.00;;;11.80;99.90;;;11.14;92.42;98758.94;5034081;28;20233;-72
2023/10/31 04:56:34;;;;;;;2.47;1.90;;;11.80;99.90;;;11.12;93.01;98762.88;5033858;28;20230;-72
2023/10/31 04:59:02;;;;;;;1.77;1.50;;;11.70;99.90;;;11.11;92.13;98758.56;5034274;28;20234;-72
2023/10/31 05:01:30;;;;;;;1.40;1.30;;;11.70;99.90;;;11.08;92.58;98767.84;5034215;28;20203;-72
2023/10/31 05:03:58;;;;;;;1.53;1.43;;;11.70;99.90;;;11.08;92.22;98770.50;5034157;28;20252;-73
2023/10/31 05:06:40;;;;;;;0.80;0.80;;;11.70;99.90;;;11.03;90.23;98774.84;5034128;28;20258;-73
2023/10/31 05:09:10;;;;;;;0.87;0.80;;;11.70;99.90;;;11.02;90.13;98775.91;5034113;28;20257;-73
2023/10/31 05:11:39;;;;;;;3.40;0.70;;;11.70;99.90;;;11.00;90.08;98788.66;5034077;28;20237;-72
2023/10/31 05:14:10;;;;;;;0.77;0.77;;;11.60;99.90;;;11.01;90.40;98788.44;5033992;28;20211;-72
2023/10/31 05:16:42;;;;;;;0.70;0.70;;;11.60;99.90;;;11.00;90.79;98785.97;5033889;28;20230;-72
2023/10/31 05:19:11;;;;;;;1.23;0.50;;;11.60;99.90;;;10.93;87.93;98795.88;5033965;28;20215;-72
2023/10/31 05:21:40;;;;;;;1.63;0.60;;;11.60;99.90;;;10.96;88.49;98796.28;5033553;28;20577;-72
2023/10/31 05:24:10;;;;;;;0.60;0.40;;;11.60;99.90;;;10.88;87.59;98809.91;5033851;28;20306;-72
2023/10/31 05:26:40;;;;;;;0.67;0.40;;;11.50;99.90;;;10.83;87.59;98803.50;5033751;28;20229;-72
2023/10/31 05:29:08;;;;;;;0.70;0.70;;;11.50;99.90;;;10.80;86.77;98810.13;5033809;28;20191;-72
2023/10/31 05:31:36;;;;;;;0.50;0.50;;;11.50;99.90;;;10.78;86.59;98812.19;5033725;28;20214;-72
2023/10/31 05:34:05;;;;;;;0.43;0.40;;;11.50;99.90;;;10.77;86.85;98807.88;5033980;28;20206;-72
2023/10/31 05:36:33;;;;;;;1.33;0.50;;;11.40;99.90;;;10.77;86.82;98810.53;5033992;28;20230;-72
2023/10/31 05:39:02;;;;;;;0.50;0.50;;;11.40;99.90;;;10.76;87.28;98824.13;5033876;28;20226;-72
2023/10/31 05:41:34;;;;;;;0.40;0.40;;;11.40;99.90;;;10.74;86.36;98820.84;5033879;28;20214;-72
2023/10/31 05:44:02;;;;;;;1.50;0.70;;;11.40;99.90;;;10.69;85.56;98824.94;5033565;28;20685;-72
2023/10/31 05:46:30;;;;;;;0.93;0.60;;;11.30;99.90;;;10.71;86.35;98826.59;5033546;28;20226;-72
2023/10/31 05:48:58;;;;;;;1.13;0.50;;;11.40;99.90;;;10.69;85.70;98827.63;5033489;28;20207;-71
2023/10/31 05:51:26;;;;;;;1.40;0.60;;;11.30;99.90;;;10.68;86.11;98827.84;5033504;28;20230;-71
2023/10/31 05:53:55;;;;;;;1.00;0.53;;;11.30;99.90;;;10.65;86.05;98834.41;5033264;28;20752;-71
2023/10/31 05:56:23;;;;;;;2.50;0.80;;;11.30;99.90;;;10.67;85.57;98837.72;5033599;28;20266;-71
2023/10/31 05:58:52;;;;;;;1.07;0.70;;;11.30;99.90;;;10.64;86.18;98840.81;5033045;28;20237;-72
2023/10/31 06:01:20;;;;;;;1.20;0.70;;;11.30;99.90;;;10.64;85.52;98846.19;5055478;22;20234;-81
2023/10/31 06:03:49;;;;;;;0.60;0.57;;;11.30;99.90;;;10.65;85.54;98849.69;5014556;28;20225;-81
2023/10/31 06:06:17;;;;;;;0.57;0.50;;;11.30;99.90;;;10.68;85.92;98854.63;5019187;28;20373;-81
2023/10/31 06:08:45;;;;;;;1.27;0.90;;;11.30;99.90;;;10.64;85.73;98843.50;5015282;28;20219;-81
2023/10/31 06:11:13;;;;;;;0.60;0.60;;;11.30;99.90;;;10.66;85.68;98849.47;5015539;28;20202;-79
2023/10/31 06:13:41;;;;;;;1.33;0.70;;;11.30;99.90;;;10.65;85.28;98860.38;5013349;28;20215;-81
2023/10/31 06:16:12;;;;;;;1.10;0.63;;;11.30;99.90;;;10.64;84.57;98856.88;5022537;28;20223;-81
2023/10/31 06:18:40;;;;;;;1.77;0.80;;;11.30;99.90;;;10.63;84.83;98859.75;5012012;28;20282;-81
2023/10/31 06:21:09;;;;;;;0.90;0.80;;;11.30;99.90;;;10.65;85.31;98855.84;5013268;28;20344;-81
2023/10/31 06:23:38;;;;;;;2.43;1.00;;;11.30;99.90;;;10.63;85.09;98857.91;5020929;28;20202;-80
2023/10/31 06:26:07;;;;;;;2.23;0.90;;;11.30;99.90;;;10.62;84.70;98855.41;5019635;28;20736;-80
2023/10/31 06:28:36;;;;;;;1.00;0.90;;;11.30;99.90;;;10.64;85.17;98856.06;5014954;28;20239;-81
2023/10/31 06:31:13;;;;;;;1.97;0.97;;;11.30;99.90;;;10.60;85.15;98857.50;5024484;28;20221;-82
2023/10/31 06:33:42;;;;;;;1.00;0.90;;;11.30;99.90;;;10.56;85.58;98862.44;5020512;28;20570;-81
2023/10/31 06:36:10;;;;;;;1.93;1.10;;;11.20;99.90;;;10.56;86.11;98867.78;5012563;28;20931;-81
2023/10/31 06:38:38;;;;;;;1.47;1.10;;;11.20;99.90;;;10.54;85.56;98864.50;5027601;28;20265;-81
2023/10/31 06:41:06;;;;;;;3.23;1.10;;;11.20;99.90;;;10.54;86.37;98871.69;5027009;28;20270;-81
2023/10/31 06:43:35;;;;;;;1.93;1.40;;;11.20;99.90;;;10.53;86.07;98884.25;5020531;28;20204;-82
2023/10/31 06:46:05;;;;;;;2.47;1.43;;;11.20;99.90;;;10.52;86.36;98884.44;5017063;28;20230;-80
2023/10/31 06:48:34;;;;;;;3.60;1.50;;;11.20;99.90;;;10.51;86.81;98880.13;5027973;28;20731;-80
2023/10/31 06:51:03;;;;;;;2.47;1.50;;;11.20;99.90;;;10.48;86.75;98880.56;5023819;28;20208;-81
2023/10/31 06:53:31;;;;;;;2.00;1.60;;;11.10;99.90;;;10.48;87.05;98894.72;5019294;28;20199;-82
2023/10/31 06:55:59;;;;;;;2.37;1.80;;;11.10;99.90;;;10.48;86.65;98892.06;5016907;28;20210;-80
2023/10/31 06:58:27;;;;;;;2.47;1.93;;;11.10;99.90;;;10.49;86.54;98893.72;5014665;28;20227;-80
2023/10/31 07:00:59;;;;;;;4.30;1.93;;;11.10;99.90;;;10.45;85.90;98886.28;5011864;28;20238;-80
2023/10/31 07:03:27;;;;;;;2.83;1.70;;;11.10;99.90;;;10.45;86.43;98903.16;5020079;28;20219;-81
2023/10/31 07:05:59;;;;;;;3.50;1.90;;;11.10;99.90;;;10.44;86.97;98914.09;5018164;28;20220;-81
2023/10/31 07:08:27;;;;;;;3.50;1.80;;;11.10;99.90;;;10.42;86.70;98908.94;5011460;28;20233;-81
2023/10/31 07:10:55;;;;;;;3.80;1.90;;;11.10;99.90;;;10.43;86.49;98915.94;5022562;28;20207;-81
2023/10/31 07:13:24;;;;;;;2.40;1.80;;;11.10;99.90;;;10.42;86.56;98916.94;5014978;28;20207;-81
2023/10/31 07:15:55;;;;;;;2.67;2.20;;;11.10;99.90;;;10.42;87.59;98922.31;5008817;28;20211;-81
2023/10/31 07:18:23;;;;;;;2.37;1.90;;;11.10;99.90;;;10.44;86.67;98928.28;5017009;28;20239;-82
2023/10/31 07:20:51;;;;;;;4.20;1.90;;;11.10;99.90;;;10.45;86.54;98923.75;5025277;28;20204;-81
2023/10/31 07:23:21;;;;;;;2.47;1.83;;;11.10;99.90;;;10.45;86.06;98923.75;5010202;28;20294;-79
2023/10/31 07:25:49;;;;;;;2.17;1.63;;;11.10;99.90;;;10.46;85.98;98930.75;5017243;28;20211;-81
2023/10/31 07:28:18;;;;;;;2.57;1.60;;;11.10;99.90;;;10.44;86.79;98930.97;5009927;28;20274;-81
2023/10/31 07:30:46;;;;;;;1.90;1.70;;;11.10;99.90;;;10.44;86.43;98939.00;5008361;28;20290;-81
2023/10/31 07:33:15;;;;;;;2.87;1.53;;;11.10;99.90;;;10.44;85.34;98943.50;5014173;28;20239;-81
2023/10/31 07:35:43;;;;;;;2.80;1.60;;;11.10;99.90;;;10.44;87.02;98949.69;5020822;28;20230;-82
2023/10/31 07:38:11;;;;;;;3.40;1.57;;;11.10;99.90;;;10.44;86.75;98952.38;5018917;28;20289;-82
2023/10/31 07:40:40;;;;;;;3.53;1.50;;;11.10;99.90;;;10.45;87.55;98956.66;5020943;28;20238;-81
2023/10/31 07:43:08;;;;;;;2.43;1.57;;;11.10;99.90;;;10.46;87.00;98958.34;5020707;28;20238;-81
2023/10/31 07:45:37;;;;;;;2.87;1.60;;;11.10;99.90;;;10.45;87.33;98971.91;5019878;28;20290;-81
2023/10/31 07:48:05;;;;;;;2.80;1.70;;;11.10;99.90;;;10.46;87.47;98960.19;5019943;28;20259;-80
2023/10/31 07:50:33;;;;;;;3.53;2.00;;;11.10;99.90;;;10.46;87.44;98969.03;5023066;28;20211;-81
2023/10/31 07:53:02;;;;;;;3.43;1.80;;;11.10;99.90;;;10.43;87.41;98957.91;5018867;28;20524;-81
2023/10/31 07:55:30;;;;;;;3.40;1.60;;;11.10;99.90;;;10.41;87.74;98965.31;5028736;28;20294;-81
2023/10/31 07:58:00;;;;;;;2.17;1.70;;;11.10;99.90;;;10.40;87.76;98975.19;5028985;28;20329;-81
2023/10/31 08:00:28;;;;;;;3.10;1.70;;;11.10;99.90;;;10.40;87.39;98985.06;5026836;28;20225;-80
2023/10/31 08:02:56;;;;;;;2.63;1.70;;;11.10;99.90;;;10.41;87.27;98981.38;5016747;28;20219;-80
2023/10/31 08:05:25;;;;;;;2.90;1.73;;;11.10;99.90;;;10.38;87.37;98990.59;5022356;28;20253;-81
2023/10/31 08:07:55;;;;;;;2.60;1.50;;;11.10;99.90;;;10.39;87.64;98973.53;5015241;28;20477;-82
2023/10/31 08:10:24;;;;;;;2.30;1.40;;;11.10;99.90;;;10.42;88.62;98988.34;5028972;28;20210;-81
2023/10/31 08:12:52;;;;;;;5.50;1.80;;;11.10;99.90;;;10.41;88.46;98984.84;5034558;28;20205;-81
2023/10/31 08:15:21;;;;;;;5.30;1.87;;;11.10;99.90;;;10.42;88.56;98989.19;5022589;28;20215;-81
2023/10/31 08:17:49;;;;;;;4.10;1.60;;;11.10;99.90;;;10.46;89.03;98995.78;5011123;28;20286;-82
2023/10/31 08:20:17;;;;;;;2.53;1.40;;;11.10;99.90;;;10.41;88.38;99000.91;5010343;28;20215;-82
2023/10/31 08:22:46;;;;;;;1.77;1.40;;;11.10;99.90;;;10.41;87.81;99000.91;5013460;28;20238;-81
2023/10/31 08:25:15;;;;;;;1.50;1.30;;;11.10;99.90;;;10.43;88.65;99003.38;5023562;28;20214;-81
2023/10/31 08:27:43;;;;;;;1.30;1.20;;;11.10;99.90;;;10.42;89.88;99002.56;5016689;28;20294;-81
2023/10/31 08:30:12;;;;;;;1.87;1.40;;;11.10;99.90;;;10.43;88.40;99011.41;5015992;28;20222;-81
2023/10/31 08:32:41;;;;;;;1.87;1.43;;;11.10;99.90;;;10.42;89.06;99010.59;5015127;28;20266;-81
2023/10/31 08:35:09;;;;;;;2.77;1.70;;;11.10;99.90;;;10.39;89.08;99027.03;5012179;28;20230;-80
2023/10/31 08:37:38;;;;;;;3.33;1.50;;;11.10;99.90;;;10.43;89.67;99027.47;5009137;28;20230;-80
2023/10/31 08:40:08;;;;;;;1.20;1.10;;;11.10;99.90;;;10.43;90.10;99033.66;5008735;28;20227;-81
2023/10/31 08:42:36;;;;;;;1.40;1.30;;;11.10;99.90;;;10.43;90.03;99028.28;5008976;28;20222;-80
2023/10/31 08:45:06;;;;;;;3.20;1.60;;;11.10;99.90;;;10.42;90.82;99028.47;5016328;28;20604;-82
2023/10/31 08:47:34;;;;;;;1.57;1.20;;;11.10;99.90;;;10.43;90.12;99025.63;5008441;28;20227;-81
2023/10/31 08:50:05;;;;;;;1.70;1.20;;;11.10;99.90;;;10.44;89.99;99024.59;5021789;28;20238;-81
2023/10/31 08:52:33;;;;;;;2.63;1.30;;;11.10;99.90;;;10.44;89.77;99029.13;5017979;28;20215;-82
2023/10/31 08:55:01;;;;;;;1.67;1.13;;;11.10;99.90;;;10.43;89.88;99036.31;5009355;28;20318;-81
2023/10/31 08:57:29;;;;;;;1.40;1.30;;;11.10;99.90;;;10.40;88.41;99034.06;5020455;28;20237;-81
2023/10/31 08:59:57;;;;;;;1.90;1.50;;;11.10;99.90;;;10.42;88.75;99042.69;5023603;28;20211;-80
2023/10/31 09:02:25;;;;;;;2.07;1.70;;;11.10;99.90;;;10.44;88.86;99037.16;5014668;28;20586;-80
2023/10/31 09:04:53;;;;;;;2.03;1.30;;;11.10;99.90;;;10.48;88.04;99052.59;5008354;28;20211;-81
2023/10/31 09:07:23;;;;;;;1.50;1.40;;;11.20;99.90;;;10.52;88.10;99050.34;5007639;28;20227;-81
2023/10/31 09:09:51;;;;;;;1.40;1.30;;;11.20;99.90;;;10.53;88.26;99055.50;5019635;28;21072;-81
2023/10/31 09:12:19;;;;;;;2.87;1.40;;;11.20;99.90;;;10.60;87.97;99066.22;5029940;28;20213;-81
2023/10/31 09:14:47;;;;;;;1.30;1.20;;;11.30;99.90;;;10.61;87.59;99066.03;5008120;28;20310;-81
2023/10/31 09:17:15;;;;;;;2.60;1.50;;;11.30;99.90;;;10.65;87.78;99064.56;5008506;28;20314;-81
2023/10/31 09:19:43;;;;;;;1.83;1.20;;;11.40;99.90;;;10.66;87.70;99071.59;5006053;28;20226;-79
2023/10/31 09:22:11;;;;;;;1.60;1.20;;;11.40;99.90;;;10.67;87.00;99078.59;5007399;28;20211;-81
2023/10/31 09:24:41;;;;;;;1.63;1.30;;;11.40;99.90;;;10.71;87.61;99080.88;5023061;28;20217;-81
2023/10/31 09:27:13;;;;;;;2.87;1.33;;;11.40;99.90;;;10.72;87.16;99085.22;5014628;28;20892;-81
2023/10/31 09:29:42;;;;;;;2.60;1.47;;;11.40;99.90;;;10.72;86.97;99093.25;5006984;28;20766;-80
2023/10/31 09:32:10;;;;;;;1.40;1.20;;;11.40;99.90;;;10.66;84.84;99102.88;5006666;28;20685;-80
2023/10/31 09:34:38;;;;;;;1.73;1.10;;;11.40;99.90;;;10.67;85.06;99099.19;5019898;28;20210;-80
2023/10/31 09:37:06;;;;;;;1.43;1.20;;;11.30;99.90;;;10.65;85.24;99102.03;5006988;28;20609;-82
2023/10/31 09:39:34;;;;;;;3.17;1.40;;;11.30;99.90;;;10.64;86.62;99116.47;5006949;28;20625;-80
2023/10/31 09:42:05;;;;;;;1.70;1.30;;;11.30;99.90;;;10.63;87.58;99127.38;5012414;28;20268;-80
2023/10/31 09:44:33;;;;;;;2.63;1.13;;;11.30;99.90;;;10.62;88.98;99126.53;5008562;28;20243;-80
2023/10/31 09:47:02;;;;;;;1.20;1.10;;;11.30;99.90;;;10.54;89.94;99136.59;5011266;28;20230;-81
2023/10/31 09:49:31;;;;;;;1.23;1.13;;;11.20;99.90;;;10.46;91.06;99137.59;5015651;28;20207;-81
2023/10/31 09:51:59;;;;;;;2.40;1.17;;;11.10;99.90;;;10.47;91.03;99144.59;5013957;28;20275;-80
2023/10/31 09:54:27;;;;;;;1.40;1.30;;;11.10;99.90;;;10.51;91.05;99137.81;5014080;28;20210;-80
2023/10/31 09:56:56;;;;;;;1.00;1.00;;;11.20;99.90;;;10.50;90.37;99144.19;5017790;28;20215;-80
2023/10/31 09:59:25;;;;;;;2.73;1.20;;;11.20;99.90;;;10.51;91.20;99150.38;5011341;28;20242;-81
2023/10/31 10:01:53;;;;;;;1.70;0.90;;;11.20;99.90;;;10.49;90.66;99171.97;5006491;28;20223;-80
2023/10/31 10:04:22;;;;;;;2.50;1.37;;;11.20;99.90;;;10.51;91.59;99158.41;5006528;28;20243;-80
2023/10/31 10:06:53;;;;;;;3.10;1.60;;;11.20;99.90;;;10.49;91.58;99163.94;5006040;28;20222;-82
2023/10/31 10:09:22;;;;;;;3.20;1.73;;;11.20;99.90;;;10.49;92.84;99177.31;5020730;28;20822;-79
2023/10/31 10:11:52;;;;;;;2.50;1.27;;;11.20;99.90;;;10.52;93.22;99192.16;5021084;28;21251;-80
2023/10/31 10:14:26;;;;;;;2.77;1.57;;;11.20;99.90;;;10.41;91.73;99182.81;5014127;28;20261;-79
2023/10/31 10:16:54;;;;;;;2.30;1.10;;;11.10;99.90;;;10.47;92.33;99182.06;5009936;28;20253;-80
2023/10/31 10:19:24;;;;;;;6.97;5.67;;;11.10;99.90;;;10.43;90.93;99188.81;5008994;28;20269;-79
2023/10/31 10:21:54;;;;;;;4.10;3.30;;;11.10;99.90;;;10.47;91.57;99195.44;5005878;28;20685;-80
2023/10/31 10:24:24;;;;;;;3.50;3.20;;;11.10;99.90;;;10.47;89.28;99192.75;5006526;28;20258;-80